createdAt,value
2023-04-22T00:02:06.929Z,6.33
2023-04-22T00:04:35.066Z,6.04
2023-04-22T00:07:02.737Z,5.87
2023-04-22T00:09:30.081Z,5.48
2023-04-22T00:11:59.126Z,5.86
2023-04-22T00:14:26.458Z,6.02
2023-04-22T00:16:53.840Z,6.14
2023-04-22T00:19:22.183Z,5.93
2023-04-22T00:21:49.727Z,5.91
2023-04-22T00:24:17.158Z,5.95
2023-04-22T00:26:44.796Z,5.75
2023-04-22T00:29:12.114Z,5.77
2023-04-22T00:31:39.424Z,5.86
2023-04-22T00:34:07.498Z,5.73
2023-04-22T00:36:34.791Z,5.64
2023-04-22T00:39:02.169Z,5.48
2023-04-22T00:41:31.339Z,5.56
2023-04-22T00:44:00.786Z,5.68
2023-04-22T00:46:28.591Z,5.77
2023-04-22T00:48:57.628Z,5.62
2023-04-22T00:51:24.981Z,5.59
2023-04-22T00:53:52.682Z,5.56
2023-04-22T00:56:22.041Z,5.39
2023-04-22T00:58:49.457Z,5.50
2023-04-22T01:01:17.673Z,5.51
2023-04-22T01:03:48.455Z,5.65
2023-04-22T01:06:18.959Z,5.25
2023-04-22T01:08:46.740Z,4.84
2023-04-22T01:11:15.028Z,5.05
2023-04-22T01:13:42.692Z,5.14
2023-04-22T01:16:11.109Z,5.36
2023-04-22T01:18:38.631Z,5.31
2023-04-22T01:21:07.329Z,5.27
2023-04-22T01:23:35.171Z,5.42
2023-04-22T01:26:02.841Z,5.15
2023-04-22T01:28:31.665Z,5.11
2023-04-22T01:30:59.853Z,5.16
2023-04-22T01:33:27.396Z,5.04
2023-04-22T01:35:54.759Z,4.95
2023-04-22T01:38:22.623Z,5.00
2023-04-22T01:40:50.147Z,5.02
2023-04-22T01:43:17.632Z,4.90
2023-04-22T01:45:45.514Z,5.02
2023-04-22T01:48:13.032Z,5.18
2023-04-22T01:50:40.444Z,4.86
2023-04-22T01:53:08.798Z,4.82
2023-04-22T01:55:37.417Z,5.03
2023-04-22T01:58:05.542Z,5.00
2023-04-22T02:00:33.165Z,4.93
2023-04-22T02:03:01.444Z,4.91
2023-04-22T02:05:28.995Z,4.97
2023-04-22T02:07:56.393Z,4.67
2023-04-22T02:10:24.355Z,4.51
2023-04-22T02:12:51.598Z,4.66
2023-04-22T02:15:18.966Z,4.88
2023-04-22T02:17:46.660Z,4.83
2023-04-22T02:20:14.265Z,4.79
2023-04-22T02:22:43.889Z,4.96
2023-04-22T02:25:14.397Z,4.97
2023-04-22T02:27:44.300Z,4.89
2023-04-22T02:30:12.917Z,4.97
2023-04-22T02:32:40.626Z,5.00
2023-04-22T02:35:08.298Z,4.90
2023-04-22T02:37:35.978Z,4.86
2023-04-22T02:40:04.121Z,4.64
2023-04-22T02:42:31.733Z,4.92
2023-04-22T02:44:59.503Z,5.07
2023-04-22T02:47:26.842Z,4.94
2023-04-22T02:49:54.160Z,4.93
2023-04-22T02:52:21.998Z,4.77
2023-04-22T02:54:49.325Z,4.77
2023-04-22T02:57:16.582Z,4.81
2023-04-22T02:59:44.193Z,4.85
2023-04-22T03:02:13.026Z,4.94
2023-04-22T03:04:41.105Z,5.00
2023-04-22T03:07:09.348Z,5.05
2023-04-22T03:09:36.853Z,5.11
2023-04-22T03:12:04.562Z,5.32
2023-04-22T03:14:32.293Z,5.10
2023-04-22T03:17:00.029Z,5.10
2023-04-22T03:19:27.606Z,4.77
2023-04-22T03:21:56.676Z,4.45
2023-04-22T03:24:24.651Z,4.65
2023-04-22T03:26:52.498Z,4.67
2023-04-22T03:29:20.292Z,4.78
2023-04-22T03:31:48.819Z,4.93
2023-04-22T03:34:17.033Z,5.08
2023-04-22T03:36:45.745Z,5.02
2023-04-22T03:39:13.302Z,5.08
2023-04-22T03:41:41.387Z,5.20
2023-04-22T03:44:09.871Z,5.19
2023-04-22T03:46:37.706Z,5.10
2023-04-22T03:49:06.874Z,5.18
2023-04-22T03:51:34.783Z,5.27
2023-04-22T03:54:03.630Z,5.26
2023-04-22T03:56:31.399Z,5.25
2023-04-22T03:58:59.165Z,5.48
2023-04-22T04:01:26.742Z,5.51
2023-04-22T04:04:08.289Z,5.67
2023-04-22T04:06:37.009Z,5.68
2023-04-22T04:09:05.822Z,5.64
2023-04-22T04:11:33.387Z,5.60
2023-04-22T04:14:01.182Z,5.56
2023-04-22T04:16:29.624Z,5.64
2023-04-22T04:19:00.915Z,5.75
2023-04-22T04:21:29.988Z,5.81
2023-04-22T04:23:57.584Z,5.82
2023-04-22T04:26:28.277Z,5.94
2023-04-22T04:29:01.241Z,5.55
2023-04-22T04:31:37.340Z,5.43
2023-04-22T04:34:07.884Z,5.67
2023-04-22T04:36:37.007Z,5.84
2023-04-22T04:39:12.380Z,5.92
2023-04-22T04:41:42.852Z,6.01
2023-04-22T04:44:13.921Z,6.19
2023-04-22T04:46:42.268Z,5.76
2023-04-22T04:49:12.872Z,6.06
2023-04-22T04:51:48.705Z,6.22
2023-04-22T04:54:20.278Z,6.46
2023-04-22T04:56:51.808Z,6.31
2023-04-22T04:59:19.921Z,6.22
2023-04-22T05:01:49.500Z,6.25
2023-04-22T05:04:17.436Z,6.50
2023-04-22T05:06:45.559Z,6.19
2023-04-22T05:09:14.042Z,6.42
2023-04-22T05:11:44.884Z,6.47
2023-04-22T05:14:14.101Z,6.40
2023-04-22T05:16:55.622Z,6.48
2023-04-22T05:19:24.265Z,6.28
2023-04-22T05:21:52.256Z,6.35
2023-04-22T05:24:19.848Z,6.19
2023-04-22T05:26:48.152Z,6.36
2023-04-22T05:29:16.139Z,6.45
2023-04-22T05:31:43.987Z,6.51
2023-04-22T05:34:12.596Z,6.54
2023-04-22T05:36:40.351Z,6.51
2023-04-22T05:39:07.838Z,6.07
2023-04-22T05:41:35.834Z,6.16
2023-04-22T05:44:03.864Z,6.44
2023-04-22T05:46:31.528Z,6.00
2023-04-22T05:49:02.764Z,6.11
2023-04-22T05:51:31.521Z,6.16
2023-04-22T05:53:59.619Z,5.87
2023-04-22T05:56:27.314Z,6.24
2023-04-22T05:58:54.676Z,6.08
2023-04-22T06:01:22.975Z,6.48
2023-04-22T06:03:52.557Z,6.69
2023-04-22T06:06:20.568Z,6.67
2023-04-22T06:08:48.076Z,6.49
2023-04-22T06:11:15.891Z,6.42
2023-04-22T06:13:43.302Z,6.70
2023-04-22T06:16:11.430Z,6.55
2023-04-22T06:18:39.676Z,6.82
2023-04-22T06:21:08.549Z,7.16
2023-04-22T06:23:37.479Z,7.26
2023-04-22T06:26:06.360Z,7.10
2023-04-22T06:28:33.990Z,7.09
2023-04-22T06:31:02.743Z,7.49
2023-04-22T06:33:30.596Z,7.68
2023-04-22T06:35:57.955Z,7.55
2023-04-22T06:38:25.673Z,7.58
2023-04-22T06:40:57.927Z,7.66
2023-04-22T06:43:26.337Z,7.85
2023-04-22T06:45:58.285Z,8.21
2023-04-22T06:48:28.246Z,8.46
2023-04-22T06:50:59.352Z,8.71
2023-04-22T06:53:27.032Z,8.89
2023-04-22T06:55:54.939Z,9.07
2023-04-22T06:58:23.057Z,8.97
2023-04-22T07:00:50.505Z,8.94
2023-04-22T07:03:18.012Z,9.22
2023-04-22T07:05:48.900Z,9.52
2023-04-22T07:08:16.512Z,9.24
2023-04-22T07:10:43.910Z,9.73
2023-04-22T07:13:17.427Z,9.95
2023-04-22T07:15:46.388Z,10.38
2023-04-22T07:18:14.831Z,10.67
2023-04-22T07:20:42.102Z,10.92
2023-04-22T07:23:12.950Z,11.17
2023-04-22T07:25:41.477Z,11.35
2023-04-22T07:28:12.548Z,11.63
2023-04-22T07:30:42.225Z,11.81
2023-04-22T07:33:10.087Z,12.01
2023-04-22T07:35:37.467Z,12.15
2023-04-22T07:38:05.417Z,12.54
2023-04-22T07:40:33.827Z,13.01
2023-04-22T07:43:01.556Z,13.30
2023-04-22T07:45:29.708Z,13.18
2023-04-22T07:47:58.060Z,13.35
2023-04-22T07:50:26.404Z,13.57
2023-04-22T07:52:54.504Z,13.63
2023-04-22T07:55:23.177Z,13.82
2023-04-22T07:57:50.949Z,13.89
2023-04-22T08:00:18.539Z,13.64
2023-04-22T08:02:47.813Z,13.79
2023-04-22T08:05:15.755Z,13.78
2023-04-22T08:07:43.610Z,14.06
2023-04-22T08:10:11.649Z,13.98
2023-04-22T08:12:39.447Z,14.11
2023-04-22T08:15:07.582Z,14.86
2023-04-22T08:17:35.598Z,14.98
2023-04-22T08:20:06.580Z,15.18
2023-04-22T08:22:36.373Z,15.34
2023-04-22T08:25:04.396Z,15.52
2023-04-22T08:27:31.806Z,15.75
2023-04-22T08:29:59.523Z,15.61
2023-04-22T08:32:27.027Z,15.73
2023-04-22T08:35:03.540Z,16.08
2023-04-22T08:37:32.486Z,16.25
2023-04-22T08:39:59.901Z,16.33
2023-04-22T08:42:28.096Z,16.28
2023-04-22T08:44:57.421Z,16.56
2023-04-22T08:47:28.934Z,16.07
2023-04-22T08:49:59.255Z,15.27
2023-04-22T08:52:26.846Z,15.08
2023-04-22T08:54:54.187Z,15.25
2023-04-22T08:57:21.963Z,15.82
2023-04-22T08:59:50.543Z,16.36
2023-04-22T09:02:21.470Z,16.25
2023-04-22T09:04:51.829Z,16.19
2023-04-22T09:07:30.192Z,16.51
2023-04-22T09:09:58.596Z,17.15
2023-04-22T09:12:26.458Z,17.53
2023-04-22T09:14:54.816Z,17.55
2023-04-22T09:17:38.575Z,17.45
2023-04-22T09:20:07.920Z,17.53
2023-04-22T09:22:42.157Z,18.14
2023-04-22T09:25:36.237Z,17.89
2023-04-22T09:28:04.096Z,17.82
2023-04-22T09:30:37.980Z,17.74
2023-04-22T09:33:07.791Z,18.08
2023-04-22T09:35:41.171Z,17.77
2023-04-22T09:38:11.636Z,17.01
2023-04-22T09:40:44.046Z,17.09
2023-04-22T09:43:12.456Z,17.49
2023-04-22T09:45:43.091Z,17.61
2023-04-22T09:48:18.596Z,17.67
2023-04-22T09:50:53.633Z,17.91
2023-04-22T09:53:30.123Z,18.01
2023-04-22T09:56:04.725Z,18.44
2023-04-22T09:58:32.202Z,18.73
2023-04-22T10:01:01.233Z,18.17
2023-04-22T10:03:29.448Z,17.05
2023-04-22T10:05:58.079Z,16.66
2023-04-22T10:08:25.530Z,16.27
2023-04-22T10:10:54.271Z,16.33
2023-04-22T10:13:22.676Z,16.44
2023-04-22T10:15:53.202Z,16.39
2023-04-22T10:18:24.745Z,15.64
2023-04-22T10:20:54.504Z,15.80
2023-04-22T10:23:24.921Z,15.73
2023-04-22T10:25:57.485Z,15.51
2023-04-22T10:28:29.014Z,15.56
2023-04-22T10:30:57.304Z,15.50
2023-04-22T10:33:27.693Z,15.56
2023-04-22T10:36:14.440Z,15.64
2023-04-22T10:39:02.056Z,15.30
2023-04-22T10:41:32.683Z,15.26
2023-04-22T10:44:09.422Z,15.08
2023-04-22T10:46:56.238Z,14.64
2023-04-22T10:49:26.995Z,14.90
2023-04-22T10:52:04.358Z,14.65
2023-04-22T10:54:36.796Z,14.73
2023-04-22T10:57:06.184Z,14.68
2023-04-22T10:59:50.353Z,14.80
2023-04-22T11:02:19.745Z,14.53
2023-04-22T11:04:48.042Z,14.99
2023-04-22T11:07:27.392Z,14.75
2023-04-22T11:10:07.853Z,14.89
2023-04-22T11:12:38.762Z,14.74
2023-04-22T11:15:11.130Z,14.95
2023-04-22T11:17:40.457Z,15.09
2023-04-22T11:20:08.949Z,14.71
2023-04-22T11:22:45.071Z,14.99
2023-04-22T11:25:12.855Z,15.10
2023-04-22T11:27:43.686Z,15.40
2023-04-22T11:30:13.057Z,15.41
2023-04-22T11:32:48.888Z,15.93
2023-04-22T11:35:19.849Z,16.42
2023-04-22T11:37:49.048Z,16.85
2023-04-22T11:40:28.943Z,16.90
2023-04-22T11:43:00.125Z,16.40
2023-04-22T11:45:29.026Z,16.40
2023-04-22T11:47:56.954Z,15.40
2023-04-22T11:50:27.053Z,15.53
2023-04-22T11:52:56.936Z,15.09
2023-04-22T11:55:32.451Z,15.41
2023-04-22T11:58:10.818Z,15.18
2023-04-22T12:00:40.904Z,15.30
2023-04-22T12:03:21.073Z,15.26
2023-04-22T12:06:08.718Z,15.29
2023-04-22T12:08:42.755Z,15.08
2023-04-22T12:11:12.488Z,15.07
2023-04-22T12:13:46.260Z,15.37
2023-04-22T12:16:19.275Z,15.18
2023-04-22T12:18:52.998Z,15.62
2023-04-22T12:21:22.777Z,16.18
2023-04-22T12:23:53.976Z,16.23
2023-04-22T12:26:26.570Z,16.58
2023-04-22T12:28:57.034Z,17.01
2023-04-22T12:31:25.442Z,17.32
2023-04-22T12:33:53.921Z,17.02
2023-04-22T12:36:22.242Z,16.62
2023-04-22T12:38:51.535Z,16.32
2023-04-22T12:41:19.145Z,16.22
2023-04-22T12:43:47.904Z,16.34
2023-04-22T12:46:15.730Z,16.74
2023-04-22T12:48:43.818Z,17.42
2023-04-22T12:51:11.533Z,17.07
2023-04-22T12:53:40.753Z,16.89
2023-04-22T12:56:08.579Z,16.88
2023-04-22T12:58:36.404Z,17.00
2023-04-22T13:01:03.779Z,17.35
2023-04-22T13:03:31.393Z,18.07
2023-04-22T13:05:59.282Z,17.90
2023-04-22T13:08:26.929Z,17.56
2023-04-22T13:10:54.348Z,17.46
2023-04-22T13:13:22.086Z,17.45
2023-04-22T13:15:54.356Z,17.60
2023-04-22T13:18:23.676Z,17.20
2023-04-22T13:20:51.702Z,17.10
2023-04-22T13:23:21.966Z,17.42
2023-04-22T13:25:50.805Z,16.71
2023-04-22T13:28:18.247Z,16.77
2023-04-22T13:30:46.079Z,16.36
2023-04-22T13:33:13.754Z,16.59
2023-04-22T13:35:41.201Z,16.46
2023-04-22T13:38:08.513Z,16.31
2023-04-22T13:40:36.481Z,16.39
2023-04-22T13:43:04.520Z,16.37
2023-04-22T13:45:31.972Z,16.00
2023-04-22T13:47:59.795Z,16.31
2023-04-22T13:50:27.366Z,16.16
2023-04-22T13:52:55.098Z,16.23
2023-04-22T13:55:22.804Z,16.23
2023-04-22T13:57:52.117Z,15.98
2023-04-22T14:00:21.057Z,15.97
2023-04-22T14:02:49.164Z,15.84
2023-04-22T14:05:17.237Z,15.80
2023-04-22T14:07:44.705Z,15.59
2023-04-22T14:10:14.078Z,15.89
2023-04-22T14:12:41.951Z,15.56
2023-04-22T14:15:11.397Z,15.58
2023-04-22T14:17:40.325Z,15.39
2023-04-22T14:20:08.965Z,15.54
2023-04-22T14:22:36.300Z,15.48
2023-04-22T14:25:04.432Z,15.70
2023-04-22T14:27:33.129Z,15.81
2023-04-22T14:30:04.392Z,15.85
2023-04-22T14:32:32.728Z,15.84
2023-04-22T14:35:00.295Z,15.69
2023-04-22T14:37:27.869Z,15.96
2023-04-22T14:39:55.737Z,16.31
2023-04-22T14:42:24.356Z,16.58
2023-04-22T14:44:51.790Z,16.43
2023-04-22T14:47:19.655Z,16.33
2023-04-22T14:49:47.055Z,16.18
2023-04-22T14:52:14.872Z,16.51
2023-04-22T14:54:42.631Z,16.62
2023-04-22T14:57:10.030Z,16.12
2023-04-22T14:59:37.466Z,15.76
2023-04-22T15:02:05.793Z,16.05
2023-04-22T15:04:33.559Z,16.02
2023-04-22T15:07:01.943Z,16.24
2023-04-22T15:09:29.832Z,16.22
2023-04-22T15:11:59.882Z,16.48
2023-04-22T15:14:27.342Z,16.38
2023-04-22T15:16:55.151Z,16.48
2023-04-22T15:19:22.530Z,16.65
2023-04-22T15:21:49.904Z,17.39
2023-04-22T15:24:17.772Z,17.89
2023-04-22T15:26:45.130Z,18.10
2023-04-22T15:29:13.140Z,15.99
2023-04-22T15:31:41.179Z,15.11
2023-04-22T15:34:08.821Z,15.47
2023-04-22T15:36:36.621Z,15.05
2023-04-22T15:39:05.686Z,15.04
2023-04-22T15:41:36.329Z,14.72
2023-04-22T15:44:06.447Z,14.86
2023-04-22T15:46:35.503Z,14.41
2023-04-22T15:49:03.734Z,14.34
2023-04-22T15:51:31.597Z,14.11
2023-04-22T15:53:58.962Z,13.53
2023-04-22T15:56:26.369Z,13.59
2023-04-22T15:58:54.152Z,13.62
2023-04-22T16:01:21.646Z,13.95
2023-04-22T16:03:49.674Z,13.81
2023-04-22T16:06:18.820Z,13.67
2023-04-22T16:08:46.361Z,13.09
2023-04-22T16:11:15.422Z,12.82
2023-04-22T16:13:43.074Z,12.94
2023-04-22T16:16:11.324Z,12.79
2023-04-22T16:18:41.407Z,12.84
2023-04-22T16:21:10.758Z,12.86
2023-04-22T16:23:38.162Z,12.79
2023-04-22T16:26:06.571Z,12.83
2023-04-22T16:28:33.986Z,12.93
2023-04-22T16:31:01.521Z,12.88
2023-04-22T16:33:29.296Z,12.77
2023-04-22T16:35:57.463Z,12.50
2023-04-22T16:38:25.204Z,12.60
2023-04-22T16:40:54.494Z,12.49
2023-04-22T16:43:22.215Z,12.54
2023-04-22T16:45:49.637Z,12.44
2023-04-22T16:48:17.403Z,12.44
2023-04-22T16:50:44.738Z,12.44
2023-04-22T16:53:12.117Z,12.39
2023-04-22T16:55:39.856Z,12.66
2023-04-22T16:58:07.286Z,12.47
2023-04-22T17:00:34.784Z,12.58
2023-04-22T17:03:02.791Z,12.73
2023-04-22T17:05:30.577Z,12.64
2023-04-22T17:07:58.007Z,12.54
2023-04-22T17:10:25.764Z,12.45
2023-04-22T17:12:53.556Z,12.41
2023-04-22T17:15:20.907Z,12.54
2023-04-22T17:17:48.623Z,12.33
2023-04-22T17:20:16.070Z,12.19
2023-04-22T17:22:43.470Z,12.06
2023-04-22T17:25:12.328Z,11.93
2023-04-22T17:27:45.884Z,11.89
2023-04-22T17:30:15.048Z,11.78
2023-04-22T17:32:46.066Z,11.71
2023-04-22T17:35:15.233Z,11.59
2023-04-22T17:37:42.975Z,11.54
2023-04-22T17:40:11.329Z,11.44
2023-04-22T17:42:45.685Z,11.49
2023-04-22T17:45:16.534Z,11.53
2023-04-22T17:47:44.789Z,11.45
2023-04-22T17:50:15.432Z,11.27
2023-04-22T17:52:45.158Z,11.24
2023-04-22T17:55:20.677Z,11.23
2023-04-22T17:57:48.563Z,11.06
2023-04-22T18:00:28.421Z,11.22
2023-04-22T18:02:57.151Z,11.22
2023-04-22T18:05:32.669Z,11.21
2023-04-22T18:08:02.842Z,11.17
2023-04-22T18:10:30.926Z,11.25
2023-04-22T18:12:58.316Z,11.23
2023-04-22T18:15:26.117Z,11.31
2023-04-22T18:17:53.544Z,11.32
2023-04-22T18:20:22.394Z,11.43
2023-04-22T18:22:52.284Z,11.52
2023-04-22T18:25:19.837Z,11.69
2023-04-22T18:27:47.819Z,11.83
2023-04-22T18:30:15.720Z,11.85
2023-04-22T18:32:43.217Z,11.86
2023-04-22T18:35:10.673Z,11.84
2023-04-22T18:37:38.393Z,11.76
2023-04-22T18:40:06.508Z,11.65
2023-04-22T18:42:34.131Z,11.69
2023-04-22T18:45:04.725Z,11.66
2023-04-22T18:47:32.914Z,11.49
2023-04-22T18:50:00.623Z,11.28
2023-04-22T18:52:28.607Z,11.33
2023-04-22T18:54:55.997Z,11.34
2023-04-22T18:57:23.372Z,11.21
2023-04-22T18:59:51.282Z,11.10
2023-04-22T19:02:18.803Z,11.18
2023-04-22T19:04:46.354Z,11.13
2023-04-22T19:07:14.235Z,11.08
2023-04-22T19:09:41.753Z,11.21
2023-04-22T19:12:14.818Z,10.86
2023-04-22T19:14:42.911Z,10.96
2023-04-22T19:17:11.173Z,11.08
2023-04-22T19:19:38.856Z,11.20
2023-04-22T19:22:07.038Z,10.83
2023-04-22T19:24:35.917Z,10.76
2023-04-22T19:27:03.622Z,10.56
2023-04-22T19:29:31.638Z,10.70
2023-04-22T19:32:00.121Z,10.81
2023-04-22T19:34:28.858Z,10.84
2023-04-22T19:36:56.554Z,10.58
2023-04-22T19:39:24.211Z,10.28
2023-04-22T19:41:51.676Z,10.41
2023-04-22T19:44:19.566Z,10.18
2023-04-22T19:46:47.268Z,10.09
2023-04-22T19:49:15.118Z,10.07
2023-04-22T19:51:44.757Z,10.06
2023-04-22T19:54:13.699Z,10.13
2023-04-22T19:56:41.679Z,10.00
2023-04-22T19:59:09.652Z,10.09
2023-04-22T20:01:37.283Z,10.06
2023-04-22T20:04:05.547Z,10.02
2023-04-22T20:06:34.047Z,9.96
2023-04-22T20:09:02.506Z,10.04
2023-04-22T20:11:31.212Z,10.06
2023-04-22T20:13:59.443Z,9.79
2023-04-22T20:16:27.983Z,9.86
2023-04-22T20:18:55.842Z,9.88
2023-04-22T20:21:24.029Z,9.92
2023-04-22T20:23:56.018Z,9.79
2023-04-22T20:26:24.568Z,9.60
2023-04-22T20:28:53.998Z,9.71
2023-04-22T20:31:23.336Z,9.61
2023-04-22T20:33:51.591Z,9.54
2023-04-22T20:36:20.486Z,9.57
2023-04-22T20:38:49.891Z,9.67
2023-04-22T20:41:21.039Z,9.57
2023-04-22T20:43:48.535Z,9.44
2023-04-22T20:46:16.308Z,9.42
2023-04-22T20:48:44.231Z,9.46
2023-04-22T20:51:12.564Z,9.39
2023-04-22T20:53:40.327Z,9.33
2023-04-22T20:56:08.376Z,9.35
2023-04-22T20:58:35.824Z,9.31
2023-04-22T21:01:03.403Z,9.27
2023-04-22T21:03:33.368Z,9.22
2023-04-22T21:06:01.489Z,9.01
2023-04-22T21:08:29.190Z,8.83
2023-04-22T21:10:57.416Z,8.78
2023-04-22T21:13:25.132Z,8.79
2023-04-22T21:15:59.642Z,8.75
2023-04-22T21:18:29.160Z,8.79
2023-04-22T21:20:57.305Z,8.77
2023-04-22T21:23:25.337Z,8.82
2023-04-22T21:25:59.685Z,8.71
2023-04-22T21:28:28.108Z,8.64
2023-04-22T21:30:56.554Z,8.72
2023-04-22T21:33:25.427Z,8.68
2023-04-22T21:35:53.426Z,8.60
2023-04-22T21:38:21.463Z,8.61
2023-04-22T21:40:48.933Z,8.42
2023-04-22T21:43:16.407Z,8.65
2023-04-22T21:45:44.144Z,8.51
2023-04-22T21:48:11.467Z,8.38
2023-04-22T21:50:38.799Z,8.28
2023-04-22T21:53:06.838Z,8.65
2023-04-22T21:55:34.199Z,8.54
2023-04-22T21:58:01.601Z,8.31
2023-04-22T22:00:29.357Z,8.34
2023-04-22T22:02:57.052Z,8.32
2023-04-22T22:05:24.497Z,8.33
2023-04-22T22:07:53.116Z,8.21
2023-04-22T22:10:20.879Z,8.17
2023-04-22T22:12:49.064Z,8.16
2023-04-22T22:15:16.884Z,8.25
2023-04-22T22:17:45.117Z,8.20
2023-04-22T22:20:18.380Z,8.24
2023-04-22T22:22:46.658Z,8.09
2023-04-22T22:25:16.384Z,8.13
2023-04-22T22:27:49.466Z,8.20
2023-04-22T22:30:19.107Z,8.03
2023-04-22T22:32:46.452Z,7.97
2023-04-22T22:35:14.562Z,7.93
2023-04-22T22:37:42.257Z,7.64
2023-04-22T22:40:10.279Z,7.73
2023-04-22T22:42:37.662Z,7.58
2023-04-22T22:45:05.965Z,7.61
2023-04-22T22:47:33.382Z,7.47
2023-04-22T22:50:00.832Z,7.70
2023-04-22T22:52:28.668Z,7.79
2023-04-22T22:54:56.138Z,7.64
2023-04-22T22:57:23.603Z,7.74
2023-04-22T22:59:51.349Z,7.63
2023-04-22T23:02:18.919Z,7.57
2023-04-22T23:04:46.723Z,7.47
2023-04-22T23:07:16.667Z,7.48
2023-04-22T23:09:43.995Z,7.58
2023-04-22T23:12:11.648Z,7.54
2023-04-22T23:14:39.476Z,7.51
2023-04-22T23:17:07.018Z,7.23
2023-04-22T23:19:35.370Z,7.29
2023-04-22T23:22:05.075Z,7.20
2023-04-22T23:24:32.601Z,7.05
2023-04-22T23:27:00.301Z,7.16
2023-04-22T23:29:28.310Z,7.17
2023-04-22T23:31:56.778Z,7.16
2023-04-22T23:34:25.062Z,7.23
2023-04-22T23:36:53.565Z,7.14
2023-04-22T23:39:20.858Z,7.06
2023-04-22T23:41:48.150Z,7.07
2023-04-22T23:44:15.996Z,7.07
2023-04-22T23:46:43.444Z,6.93
2023-04-22T23:49:11.019Z,7.15
2023-04-22T23:51:38.935Z,6.88
2023-04-22T23:54:06.476Z,6.96
2023-04-22T23:56:34.054Z,6.83
2023-04-22T23:59:01.986Z,6.55
